Time;durP1;ratioP1;P1;durP2;ratioP2;P2;SDS_P1;SDS_P2;PMS_P1;PMS_P2;Temp;Humidity;BMP_temperature;BMP_pressure;BME280_temperature;BME280_humidity;BME280_pressure;Samples;Min_cycle;Max_cycle;Signal;HPM_P1;HPM_P2
2023/07/01 00:00:07;;;;;;;9.68;2.95;;;;;;;-143.48;64.78;118439.88;5093305;28;20030;-72
2023/07/01 00:02:33;;;;;;;9.45;2.85;;;;;;;-143.48;64.75;118439.88;5093127;28;20107;-72
2023/07/01 00:04:59;;;;;;;8.77;2.50;;;;;;;-143.48;64.85;118439.88;5093379;28;20062;-72
2023/07/01 00:07:24;;;;;;;8.55;2.50;;;;;;;-143.48;64.85;118439.88;5078122;28;20048;-73
2023/07/01 00:09:50;;;;;;;11.07;2.97;;;;;;;-143.48;65.50;118439.88;5097356;28;20026;-73
2023/07/01 00:12:15;;;;;;;6.55;2.63;;;;;;;-143.48;66.65;118439.88;5079137;28;20031;-72
2023/07/01 00:14:41;;;;;;;12.18;3.20;;;;;;;-143.48;72.41;118439.88;5103695;28;20024;-71
2023/07/01 00:17:09;;;;;;;7.85;3.30;;;;;;;-143.48;75.70;118439.88;5103566;28;20027;-71
2023/07/01 00:19:35;;;;;;;7.20;2.88;;;;;;;-143.48;76.22;118439.88;5103631;28;20020;-71
2023/07/01 00:22:01;;;;;;;9.23;3.30;;;;;;;-143.48;79.13;118439.88;5104196;28;20031;-71
2023/07/01 00:24:27;;;;;;;7.00;3.00;;;;;;;-143.48;79.06;118439.88;5104302;28;20452;-71
2023/07/01 00:26:52;;;;;;;8.45;3.42;;;;;;;-143.48;78.01;118439.88;5103492;28;20056;-71
2023/07/01 00:29:17;;;;;;;9.50;3.00;;;;;;;-143.48;77.93;118439.88;5104428;28;20482;-71
2023/07/01 00:31:43;;;;;;;6.90;2.83;;;;;;;-143.48;76.49;118439.88;5103792;28;20032;-73
2023/07/01 00:34:08;;;;;;;8.98;3.00;;;;;;;-143.48;78.55;118439.88;5086537;28;20028;-72
2023/07/01 00:36:33;;;;;;;9.32;3.70;;;;;;;-143.48;79.47;118439.88;5100270;28;20039;-73
2023/07/01 00:38:59;;;;;;;8.43;3.22;;;;;;;-143.48;80.34;118439.88;5097693;28;20026;-73
2023/07/01 00:41:24;;;;;;;11.32;3.25;;;;;;;-143.48;80.30;118439.88;5098832;28;20051;-73
2023/07/01 00:43:50;;;;;;;9.45;2.95;;;;;;;-143.48;80.67;118439.88;5079754;28;20035;-73
2023/07/01 00:46:16;;;;;;;8.70;3.28;;;;;;;-143.48;83.56;118439.88;5078677;28;20028;-72
2023/07/01 00:48:42;;;;;;;9.45;3.63;;;;;;;-143.48;85.96;118439.88;5096856;28;20072;-72
2023/07/01 00:51:08;;;;;;;9.10;3.60;;;;;;;-143.48;88.83;118439.88;5097108;28;20094;-73
2023/07/01 00:53:33;;;;;;;8.43;3.58;;;;;;;-143.48;90.84;118439.88;5096782;28;20016;-73
2023/07/01 00:55:58;;;;;;;9.48;3.97;;;;;;;-143.48;91.27;118439.88;5096910;28;20020;-74
2023/07/01 00:58:24;;;;;;;12.13;3.75;;;;;;;-143.48;91.52;118439.88;5100253;28;20024;-71
2023/07/01 01:00:49;;;;;;;8.38;3.90;;;;;;;-143.48;92.13;118439.88;5102649;28;20024;-72
2023/07/01 01:03:22;;;;;;;11.43;3.90;;;;;;;-143.48;91.40;118439.88;5101801;28;20043;-72
2023/07/01 01:05:53;;;;;;;11.02;4.18;;;;;;;-143.48;90.66;118439.88;5102179;28;20024;-73
2023/07/01 01:08:28;;;;;;;9.30;3.83;;;;;;;-143.48;90.32;118439.88;5103694;28;20032;-72
2023/07/01 01:10:56;;;;;;;8.98;3.50;;;;;;;-143.48;90.55;118439.88;5085702;28;20024;-72
2023/07/01 01:13:25;;;;;;;12.30;3.85;;;;;;;-143.48;89.77;118439.88;5085015;28;20027;-71
2023/07/01 01:15:51;;;;;;;9.18;3.90;;;;;;;-143.48;89.93;118439.88;5103194;28;20024;-71
2023/07/01 01:18:20;;;;;;;11.10;4.10;;;;;;;-143.48;89.83;118439.88;5084789;28;20020;-71
2023/07/01 01:20:50;;;;;;;13.80;4.03;;;;;;;-143.48;90.24;118439.88;5084523;28;20543;-72
2023/07/01 01:23:34;;;;;;;8.27;3.80;;;;;;;-143.48;90.22;118439.88;5097087;28;20024;-73
2023/07/01 01:26:09;;;;;;;9.88;4.05;;;;;;;-143.48;89.96;118439.88;5096435;28;20070;-73
2023/07/01 01:28:35;;;;;;;8.32;3.65;;;;;;;-143.48;89.19;118439.88;5096815;28;20024;-73
2023/07/01 01:31:01;;;;;;;8.80;3.63;;;;;;;-143.48;88.67;118439.88;5096723;28;20032;-73
2023/07/01 01:33:27;;;;;;;9.95;3.63;;;;;;;-143.48;86.78;118439.88;5078826;28;20095;-73
2023/07/01 01:36:09;;;;;;;10.38;3.58;;;;;;;-143.48;85.57;118439.88;5096603;28;20028;-73
2023/07/01 01:38:39;;;;;;;10.52;3.70;;;;;;;-143.48;83.61;118439.88;5095397;28;20020;-73
2023/07/01 01:41:09;;;;;;;9.73;3.80;;;;;;;-143.48;82.96;118439.88;5096234;28;20028;-73
2023/07/01 01:43:46;;;;;;;9.50;3.47;;;;;;;-143.48;83.02;118439.88;5096659;28;20073;-73
2023/07/01 01:46:13;;;;;;;9.02;3.65;;;;;;;-143.48;82.44;118439.88;5096567;28;20479;-73
2023/07/01 01:48:39;;;;;;;14.10;3.85;;;;;;;-143.48;82.30;118439.88;5077928;28;20090;-72
2023/07/01 01:51:07;;;;;;;7.35;3.40;;;;;;;-143.48;81.59;118439.88;5077905;28;20115;-72
2023/07/01 01:53:35;;;;;;;11.00;3.60;;;;;;;-143.48;81.71;118439.88;5096018;28;20391;-72
2023/07/01 01:56:01;;;;;;;12.98;3.10;;;;;;;-143.48;81.60;118439.88;5095823;28;20484;-73
2023/07/01 01:58:27;;;;;;;6.78;3.22;;;;;;;-143.48;82.02;118439.88;5095487;28;20044;-73
2023/07/01 02:00:52;;;;;;;7.53;3.03;;;;;;;-143.48;81.89;118439.88;5077251;28;20463;-72
2023/07/01 02:03:17;;;;;;;10.65;3.80;;;;;;;-143.48;82.79;118439.88;5095718;28;20028;-72
2023/07/01 02:05:43;;;;;;;9.45;3.35;;;;;;;-143.48;82.30;118439.88;5077054;28;20027;-73
2023/07/01 02:08:08;;;;;;;11.95;3.90;;;;;;;-143.48;83.03;118439.88;5095435;28;20515;-71
2023/07/01 02:10:33;;;;;;;9.80;3.60;;;;;;;-143.48;82.41;118439.88;5095234;28;20059;-72
2023/07/01 02:12:59;;;;;;;11.05;3.80;;;;;;;-143.48;83.09;118439.88;5076987;28;20441;-71
2023/07/01 02:15:24;;;;;;;9.68;3.67;;;;;;;-143.48;83.35;118439.88;5095391;28;20458;-72
2023/07/01 02:17:50;;;;;;;16.45;3.55;;;;;;;-143.48;83.27;118439.88;5095103;28;20016;-73
2023/07/01 02:20:16;;;;;;;12.63;3.80;;;;;;;-143.48;83.44;118439.88;5094865;28;20035;-73
2023/07/01 02:22:41;;;;;;;8.57;3.55;;;;;;;-143.48;82.75;118439.88;5094885;28;20043;-73
2023/07/01 02:25:07;;;;;;;7.95;3.90;;;;;;;-143.48;83.25;118439.88;5094924;28;20129;-73
2023/07/01 02:27:32;;;;;;;9.27;3.50;;;;;;;-143.48;83.12;118439.88;5077110;28;20364;-73
2023/07/01 02:29:58;;;;;;;8.00;3.78;;;;;;;-143.48;83.54;118439.88;5076575;28;20120;-74
2023/07/01 02:32:24;;;;;;;16.00;3.70;;;;;;;-143.48;83.69;118439.88;5078044;28;20530;-73
2023/07/01 02:34:50;;;;;;;8.85;3.55;;;;;;;-143.48;84.04;118439.88;5095807;28;20024;-72
2023/07/01 02:37:16;;;;;;;7.38;3.70;;;;;;;-143.48;84.04;118439.88;5077178;28;20107;-72
2023/07/01 02:39:42;;;;;;;9.52;3.60;;;;;;;-143.48;83.72;118439.88;5095117;28;20020;-72
2023/07/01 02:42:08;;;;;;;10.27;4.07;;;;;;;-143.48;83.58;118439.88;5095007;28;20032;-72
2023/07/01 02:44:33;;;;;;;9.05;3.97;;;;;;;-143.48;84.94;118439.88;5094673;28;20494;-73
2023/07/01 02:46:58;;;;;;;10.30;3.67;;;;;;;-143.48;84.23;118439.88;5094728;28;20024;-72
2023/07/01 02:49:24;;;;;;;7.60;3.85;;;;;;;-143.48;84.47;118439.88;5094562;28;20127;-72
2023/07/01 02:51:49;;;;;;;9.43;4.10;;;;;;;-143.48;85.28;118439.88;5094336;28;20073;-72
2023/07/01 02:54:15;;;;;;;7.85;4.00;;;;;;;-143.48;85.34;118439.88;5094466;28;20081;-72
2023/07/01 02:56:40;;;;;;;10.90;4.38;;;;;;;-143.48;85.14;118439.88;5094375;28;20036;-72
2023/07/01 02:59:05;;;;;;;10.25;3.90;;;;;;;-143.48;86.50;118439.88;5094896;28;20379;-73
2023/07/01 03:01:30;;;;;;;11.20;3.95;;;;;;;-143.48;86.15;118439.88;5094730;28;20016;-73
2023/07/01 03:03:56;;;;;;;10.82;4.20;;;;;;;-143.48;86.12;118439.88;5076151;28;20032;-73
2023/07/01 03:06:21;;;;;;;8.82;4.05;;;;;;;-143.48;86.64;118439.88;5075743;28;20135;-73
2023/07/01 03:08:47;;;;;;;17.60;4.10;;;;;;;-143.48;87.83;118439.88;5095098;28;20035;-73
2023/07/01 03:11:12;;;;;;;9.32;4.40;;;;;;;-143.48;88.69;118439.88;5095426;28;20024;-72
2023/07/01 03:13:37;;;;;;;9.75;4.05;;;;;;;-143.48;88.42;118439.88;5079015;28;20395;-71
2023/07/01 03:16:07;;;;;;;14.00;4.70;;;;;;;-143.48;88.30;118439.88;5083030;28;20016;-70
2023/07/01 03:18:33;;;;;;;8.18;4.38;;;;;;;-143.48;88.48;118439.88;5101548;28;20143;-70
2023/07/01 03:21:00;;;;;;;9.43;4.43;;;;;;;-143.48;88.62;118439.88;5083185;28;20498;-72
2023/07/01 03:23:26;;;;;;;8.70;4.57;;;;;;;-143.48;88.53;118439.88;5100907;28;20151;-72
2023/07/01 03:25:52;;;;;;;10.25;4.60;;;;;;;-143.48;89.17;118439.88;5083469;28;20024;-71
2023/07/01 03:28:17;;;;;;;12.35;4.72;;;;;;;-143.48;88.58;118439.88;5101559;28;20063;-72
2023/07/01 03:30:43;;;;;;;7.55;4.30;;;;;;;-143.48;89.29;118439.88;5102123;28;20028;-73
2023/07/01 03:33:12;;;;;;;10.68;4.53;;;;;;;-143.48;89.08;118439.88;5083671;28;20036;-72
2023/07/01 03:35:38;;;;;;;8.15;4.57;;;;;;;-143.48;89.95;118439.88;5084352;28;20027;-70
2023/07/01 03:38:04;;;;;;;10.02;4.50;;;;;;;-143.48;90.38;118439.88;5101549;28;20024;-71
2023/07/01 03:40:29;;;;;;;10.40;4.85;;;;;;;-143.48;90.28;118439.88;5095055;28;20028;-73
2023/07/01 03:42:54;;;;;;;11.48;4.47;;;;;;;-143.48;91.26;118439.88;5094216;28;20494;-73
2023/07/01 03:45:20;;;;;;;11.23;4.43;;;;;;;-143.48;90.89;118439.88;5094365;28;20031;-72
2023/07/01 03:47:45;;;;;;;9.85;4.30;;;;;;;-143.48;90.97;118439.88;5076022;28;20019;-72
2023/07/01 03:50:12;;;;;;;12.02;4.07;;;;;;;-143.48;91.39;118439.88;5076138;28;20027;-72
2023/07/01 03:52:39;;;;;;;8.82;4.35;;;;;;;-143.48;91.01;118439.88;5076084;28;20042;-72
2023/07/01 03:55:06;;;;;;;8.93;4.30;;;;;;;-143.48;91.18;118439.88;5075867;28;20051;-72
2023/07/01 03:57:32;;;;;;;9.25;4.15;;;;;;;-143.48;91.74;118439.88;5075488;28;20471;-72
2023/07/01 03:59:57;;;;;;;8.30;4.25;;;;;;;-143.48;91.76;118439.88;5075333;28;20058;-73
2023/07/01 04:02:23;;;;;;;11.70;4.43;;;;;;;-143.48;91.91;118439.88;5075997;28;20024;-72
2023/07/01 04:04:48;;;;;;;6.75;4.20;;;;;;;-143.48;93.29;118439.88;5094114;28;20471;-71
2023/07/01 04:07:14;;;;;;;9.85;4.20;;;;;;;-143.48;93.78;118439.88;5093729;28;20162;-72
2023/07/01 04:09:39;;;;;;;8.95;4.63;;;;;;;-143.48;94.51;118439.88;5094138;28;20078;-72
2023/07/01 04:12:05;;;;;;;7.80;4.45;;;;;;;-143.48;94.64;118439.88;5094835;28;20066;-72
2023/07/01 04:14:31;;;;;;;10.23;4.72;;;;;;;-143.48;95.51;118439.88;5093995;28;20020;-72
2023/07/01 04:16:56;;;;;;;13.27;5.32;;;;;;;-143.48;95.33;118439.88;5094018;28;20097;-71
2023/07/01 04:19:21;;;;;;;12.02;5.75;;;;;;;-143.48;95.39;118439.88;5093993;28;20023;-72
2023/07/01 04:21:47;;;;;;;11.73;4.95;;;;;;;-143.48;96.09;118439.88;5095145;28;20066;-72
2023/07/01 04:24:13;;;;;;;8.85;4.90;;;;;;;-143.48;96.47;118439.88;5094622;28;20016;-71
2023/07/01 04:26:38;;;;;;;15.70;5.53;;;;;;;-143.48;96.80;118439.88;5094309;28;20513;-72
2023/07/01 04:29:03;;;;;;;16.85;5.55;;;;;;;-143.48;97.64;118439.88;5095682;28;20103;-71
2023/07/01 04:31:29;;;;;;;8.90;5.95;;;;;;;-143.48;99.13;118439.88;5099947;28;20031;-72
2023/07/01 04:33:55;;;;;;;12.88;5.93;;;;;;;-143.48;98.45;118439.88;5100540;28;20032;-72
2023/07/01 04:36:20;;;;;;;10.88;6.10;;;;;;;-143.48;99.09;118439.88;5098835;28;20475;-73
2023/07/01 04:38:46;;;;;;;9.30;6.10;;;;;;;-143.48;100.00;118439.88;5094785;28;20053;-72
2023/07/01 04:41:11;;;;;;;10.82;6.50;;;;;;;-143.48;100.00;118439.88;5094568;28;20105;-71
2023/07/01 04:43:36;;;;;;;8.73;6.57;;;;;;;-143.48;100.00;118439.88;5094612;28;20028;-72
2023/07/01 04:46:03;;;;;;;11.32;6.72;;;;;;;-143.48;100.00;118439.88;5094075;28;20021;-73
2023/07/01 04:48:29;;;;;;;9.65;7.07;;;;;;;-143.48;100.00;118439.88;5076356;28;20387;-71
2023/07/01 04:50:54;;;;;;;10.60;7.32;;;;;;;-143.48;100.00;118439.88;5094598;28;20023;-73
2023/07/01 04:53:19;;;;;;;11.70;7.30;;;;;;;-143.48;100.00;118439.88;5097015;28;20047;-73
2023/07/01 04:55:45;;;;;;;12.60;7.03;;;;;;;-143.48;100.00;118439.88;5079928;28;20031;-73
2023/07/01 04:58:10;;;;;;;10.20;7.28;;;;;;;-143.48;100.00;118439.88;5098888;28;20463;-75
2023/07/01 05:00:37;;;;;;;11.65;7.63;;;;;;;-143.48;100.00;118439.88;5111269;28;20024;-78
2023/07/01 05:03:03;;;;;;;12.45;7.68;;;;;;;-143.48;100.00;118439.88;5111491;28;20038;-78
2023/07/01 05:05:29;;;;;;;10.38;7.45;;;;;;;-143.48;100.00;118439.88;5111770;28;20020;-75
2023/07/01 05:07:54;;;;;;;12.65;7.90;;;;;;;-143.48;100.00;118439.88;5112690;28;20044;-78
2023/07/01 05:10:19;;;;;;;12.23;8.23;;;;;;;-143.48;100.00;118439.88;5096100;28;20020;-75
2023/07/01 05:12:45;;;;;;;11.38;8.20;;;;;;;-143.48;100.00;118439.88;5097895;28;20028;-75
2023/07/01 05:15:10;;;;;;;10.23;7.78;;;;;;;-143.48;100.00;118439.88;5111942;28;20364;-75
2023/07/01 05:17:35;;;;;;;12.57;8.02;;;;;;;-143.48;100.00;118439.88;5110708;28;20036;-74
2023/07/01 05:20:01;;;;;;;11.40;8.07;;;;;;;-143.48;100.00;118439.88;5102989;28;20096;-73
2023/07/01 05:22:26;;;;;;;12.73;8.05;;;;;;;-143.48;100.00;118439.88;5085165;28;20054;-75
2023/07/01 05:24:52;;;;;;;13.57;7.95;;;;;;;-143.48;100.00;118439.88;5092430;28;20075;-75
2023/07/01 05:27:17;;;;;;;10.65;8.07;;;;;;;-143.48;100.00;118439.88;5111440;28;20028;-74
2023/07/01 05:29:42;;;;;;;10.15;7.82;;;;;;;-143.48;100.00;118439.88;5100112;28;20027;-73
2023/07/01 05:32:08;;;;;;;10.65;7.53;;;;;;;-143.48;100.00;118439.88;5099830;28;20016;-73
2023/07/01 05:34:33;;;;;;;12.63;7.68;;;;;;;-143.48;100.00;118439.88;5099603;28;20020;-72
2023/07/01 05:36:58;;;;;;;13.70;7.50;;;;;;;-143.48;100.00;118439.88;5098743;28;20028;-73
2023/07/01 05:39:24;;;;;;;13.27;7.97;;;;;;;-143.48;100.00;118439.88;5098006;28;20055;-72
2023/07/01 05:41:50;;;;;;;11.38;7.78;;;;;;;-143.48;100.00;118439.88;5097338;28;20490;-73
2023/07/01 05:44:15;;;;;;;10.68;7.72;;;;;;;-143.48;100.00;118439.88;5097429;28;20028;-71
2023/07/01 05:46:40;;;;;;;9.95;7.43;;;;;;;-143.48;100.00;118439.88;5096548;28;20035;-71
2023/07/01 05:49:07;;;;;;;10.80;7.35;;;;;;;-143.48;100.00;118439.88;5096467;28;20016;-71
2023/07/01 05:51:33;;;;;;;11.40;7.38;;;;;;;-143.48;100.00;118439.88;5078004;28;20020;-71
2023/07/01 05:53:58;;;;;;;11.55;7.50;;;;;;;-143.48;100.00;118439.88;5096083;28;20028;-71
2023/07/01 05:56:23;;;;;;;11.75;7.90;;;;;;;-143.48;100.00;118439.88;5080811;28;20032;-72
2023/07/01 05:58:49;;;;;;;10.05;7.53;;;;;;;-143.48;100.00;118439.88;5102555;28;20020;-71
2023/07/01 06:01:14;;;;;;;12.38;7.70;;;;;;;-143.48;100.00;118439.88;5098435;28;20022;-72
2023/07/01 06:03:39;;;;;;;12.10;8.00;;;;;;;-143.48;100.00;118439.88;5100877;28;20044;-72
2023/07/01 06:06:05;;;;;;;11.93;8.20;;;;;;;-143.48;100.00;118439.88;5097582;28;20411;-71
2023/07/01 06:08:30;;;;;;;12.32;7.97;;;;;;;-143.48;100.00;118439.88;5083246;28;20027;-72
2023/07/01 06:10:56;;;;;;;10.23;7.47;;;;;;;-143.48;100.00;118439.88;5102086;28;20031;-71
2023/07/01 06:13:21;;;;;;;10.73;8.10;;;;;;;-143.48;100.00;118439.88;5084557;28;20028;-71
2023/07/01 06:15:47;;;;;;;12.13;7.28;;;;;;;-143.48;100.00;118439.88;5103034;28;20064;-72
2023/07/01 06:18:12;;;;;;;8.90;7.40;;;;;;;-143.48;100.00;118439.88;5081142;28;20023;-73
2023/07/01 06:20:38;;;;;;;12.20;8.05;;;;;;;-143.48;100.00;118439.88;5099439;28;20456;-71
2023/07/01 06:23:03;;;;;;;11.93;7.93;;;;;;;-143.48;100.00;118439.88;5095454;28;20028;-71
2023/07/01 06:25:28;;;;;;;10.60;7.38;;;;;;;-143.48;100.00;118439.88;5097840;28;20019;-71
2023/07/01 06:27:54;;;;;;;12.25;7.93;;;;;;;-143.48;100.00;118439.88;5081999;28;20059;-70
2023/07/01 06:30:19;;;;;;;11.43;7.03;;;;;;;-143.48;100.00;118439.88;5098680;28;20060;-70
2023/07/01 06:32:44;;;;;;;16.27;7.40;;;;;;;-143.48;100.00;118439.88;5081403;28;20040;-73
2023/07/01 06:35:10;;;;;;;10.68;7.20;;;;;;;-143.48;100.00;118439.88;5078478;28;20463;-72
2023/07/01 06:37:35;;;;;;;8.88;6.40;;;;;;;-143.48;100.00;118439.88;5076790;28;20024;-72
2023/07/01 06:40:00;;;;;;;7.88;6.38;;;;;;;-143.48;100.00;118439.88;5076700;28;20031;-71
2023/07/01 06:42:26;;;;;;;10.02;6.47;;;;;;;-143.48;100.00;118439.88;5094970;28;20045;-71
2023/07/01 06:44:51;;;;;;;7.90;6.55;;;;;;;-143.48;100.00;118439.88;5096443;28;20031;-71
2023/07/01 06:47:16;;;;;;;10.20;6.13;;;;;;;-143.48;100.00;118439.88;5098299;28;20024;-72
2023/07/01 06:49:42;;;;;;;13.82;6.30;;;;;;;-143.48;100.00;118439.88;5098213;28;20024;-72
2023/07/01 06:52:07;;;;;;;25.23;6.97;;;;;;;-143.48;100.00;118439.88;5096920;28;20028;-71
2023/07/01 06:54:32;;;;;;;8.70;6.28;;;;;;;-143.48;100.00;118439.88;5077151;28;20024;-72
2023/07/01 06:56:58;;;;;;;7.22;5.72;;;;;;;-143.48;100.00;118439.88;5096020;28;20024;-70
2023/07/01 06:59:23;;;;;;;20.05;7.00;;;;;;;-143.48;100.00;118439.88;5081296;28;20373;-72
2023/07/01 07:01:48;;;;;;;7.43;6.10;;;;;;;-143.48;100.00;118439.88;5102795;28;20368;-71
2023/07/01 07:04:14;;;;;;;10.57;6.45;;;;;;;-143.48;100.00;118439.88;5097707;28;20395;-71
2023/07/01 07:06:39;;;;;;;7.57;6.05;;;;;;;-143.48;100.00;118439.88;5098150;28;20052;-72
2023/07/01 07:09:05;;;;;;;8.73;6.60;;;;;;;-143.48;100.00;118439.88;5097177;28;20027;-72
2023/07/01 07:11:31;;;;;;;14.07;6.43;;;;;;;-143.48;100.00;118439.88;5094965;28;20077;-72
2023/07/01 07:13:56;;;;;;;10.50;6.35;;;;;;;-143.48;100.00;118439.88;5094573;28;20031;-71
2023/07/01 07:16:21;;;;;;;9.00;6.90;;;;;;;-143.48;100.00;118439.88;5093084;28;20027;-71
2023/07/01 07:18:46;;;;;;;9.20;6.65;;;;;;;-143.48;100.00;118439.88;5093959;28;20510;-72
2023/07/01 07:21:12;;;;;;;8.85;6.68;;;;;;;-143.48;100.00;118439.88;5076071;28;20443;-72
2023/07/01 07:23:37;;;;;;;7.70;6.40;;;;;;;-143.48;100.00;118439.88;5075650;28;20024;-71
2023/07/01 07:26:03;;;;;;;9.50;6.40;;;;;;;-143.48;100.00;118439.88;5075680;28;20028;-72
2023/07/01 07:28:28;;;;;;;9.07;6.75;;;;;;;-143.48;100.00;118439.88;5093717;28;20035;-71
2023/07/01 07:30:53;;;;;;;9.50;6.03;;;;;;;-143.48;100.00;118439.88;5092795;28;20047;-71
2023/07/01 07:33:18;;;;;;;8.63;6.32;;;;;;;-143.48;100.00;118439.88;5094255;28;20020;-72
2023/07/01 07:35:44;;;;;;;9.55;6.03;;;;;;;-143.48;100.00;118439.88;5093613;28;20035;-71
2023/07/01 07:38:09;;;;;;;6.00;5.18;;;;;;;-143.48;100.00;118439.88;5093899;28;20027;-71
2023/07/01 07:40:34;;;;;;;7.60;6.20;;;;;;;-143.48;100.00;118439.88;5093781;28;20028;-71
2023/07/01 07:43:08;;;;;;;7.63;5.63;;;;;;;-143.48;100.00;118439.88;5075439;28;20455;-71
2023/07/01 07:45:34;;;;;;;7.50;6.10;;;;;;;-143.48;100.00;118439.88;5093408;28;20027;-71
2023/07/01 07:47:59;;;;;;;7.63;6.05;;;;;;;-143.48;100.00;118439.88;5097324;28;20023;-71
2023/07/01 07:50:25;;;;;;;13.93;5.80;;;;;;;-143.48;100.00;118439.88;5094104;28;20471;-72
2023/07/01 07:52:50;;;;;;;13.60;6.13;;;;;;;-143.48;100.00;118439.88;5094726;28;20039;-72
2023/07/01 07:55:16;;;;;;;7.05;5.68;;;;;;;-143.48;100.00;118439.88;5093611;28;20027;-72
2023/07/01 07:57:41;;;;;;;9.13;5.90;;;;;;;-143.48;100.00;118439.88;5096747;28;20110;-71
2023/07/01 08:00:07;;;;;;;7.13;5.63;;;;;;;-143.48;100.00;118439.88;5093529;28;20111;-71
2023/07/01 08:02:32;;;;;;;7.75;5.18;;;;;;;-143.48;100.00;118439.88;5094593;28;20103;-71
2023/07/01 08:04:58;;;;;;;12.70;5.72;;;;;;;-143.48;100.00;118439.88;5096520;28;20023;-71
2023/07/01 08:07:23;;;;;;;7.88;5.32;;;;;;;-143.48;100.00;118439.88;5093408;28;20052;-71
2023/07/01 08:09:48;;;;;;;13.70;6.13;;;;;;;-143.48;100.00;118439.88;5093290;28;20421;-72
2023/07/01 08:12:13;;;;;;;9.90;5.50;;;;;;;-143.48;100.00;118439.88;5093270;28;20028;-71
2023/07/01 08:14:39;;;;;;;7.95;5.25;;;;;;;-143.48;100.00;118439.88;5093482;28;20024;-71
2023/07/01 08:17:05;;;;;;;8.23;5.43;;;;;;;-143.48;100.00;118439.88;5092076;28;20028;-71
2023/07/01 08:19:30;;;;;;;10.52;5.10;;;;;;;-143.48;100.00;118439.88;5092659;28;20066;-71
2023/07/01 08:21:56;;;;;;;6.03;5.18;;;;;;;-143.48;100.00;118439.88;5074924;28;20069;-72
2023/07/01 08:24:21;;;;;;;9.95;5.20;;;;;;;-143.48;100.00;118439.88;5093414;28;20016;-72
2023/07/01 08:26:47;;;;;;;9.30;4.85;;;;;;;-143.48;100.00;118439.88;5093009;28;20020;-72
2023/07/01 08:29:12;;;;;;;6.78;5.22;;;;;;;-143.48;100.00;118439.88;5098132;28;20500;-71
2023/07/01 08:31:39;;;;;;;5.05;4.40;;;;;;;-143.48;100.00;118439.88;5099030;28;20474;-72
2023/07/01 08:34:05;;;;;;;5.13;4.32;;;;;;;-143.48;100.00;118439.88;5097166;28;20020;-72
2023/07/01 08:36:30;;;;;;;5.55;4.30;;;;;;;-143.48;100.00;118439.88;5096801;28;20035;-72
2023/07/01 08:38:56;;;;;;;6.40;4.65;;;;;;;-143.48;100.00;118439.88;5098357;28;20103;-71
2023/07/01 08:41:25;;;;;;;6.05;4.80;;;;;;;-143.48;100.00;118439.88;5096493;28;20383;-71
2023/07/01 08:43:54;;;;;;;10.13;4.75;;;;;;;-143.48;100.00;118439.88;5098485;28;20316;-71
2023/07/01 08:46:22;;;;;;;8.50;4.30;;;;;;;-143.48;100.00;118439.88;5097339;28;20039;-71
2023/07/01 08:48:48;;;;;;;5.45;4.07;;;;;;;-143.48;100.00;118439.88;5078863;28;20103;-71
2023/07/01 08:51:30;;;;;;;5.32;4.10;;;;;;;-143.48;100.00;118439.88;5096829;28;20101;-72
2023/07/01 08:53:58;;;;;;;4.95;4.13;;;;;;;-143.48;100.00;118439.88;5097163;28;20020;-72
2023/07/01 08:56:24;;;;;;;5.10;3.97;;;;;;;-143.48;100.00;118439.88;5078042;28;20445;-72
2023/07/01 08:58:50;;;;;;;5.80;4.18;;;;;;;-143.48;100.00;118439.88;5079384;28;20020;-71
2023/07/01 09:01:16;;;;;;;14.07;4.68;;;;;;;-143.48;100.00;118439.88;5097348;28;20098;-71
2023/07/01 09:03:42;;;;;;;6.60;3.85;;;;;;;-143.48;100.00;118439.88;5096494;28;20107;-72
2023/07/01 09:06:08;;;;;;;3.92;3.45;;;;;;;-143.48;100.00;118439.88;5097149;28;20059;-72
2023/07/01 09:08:39;;;;;;;6.95;3.58;;;;;;;-143.48;100.00;118439.88;5096184;28;20506;-70
2023/07/01 09:11:05;;;;;;;6.93;3.50;;;;;;;-143.48;100.00;118439.88;5077860;28;20027;-71
2023/07/01 09:13:31;;;;;;;5.07;3.25;;;;;;;-143.48;100.00;118439.88;5096277;28;20024;-72
2023/07/01 09:15:56;;;;;;;5.72;3.22;;;;;;;-143.48;100.00;118439.88;5096257;28;20372;-71
2023/07/01 09:18:24;;;;;;;4.93;3.25;;;;;;;-143.48;100.00;118439.88;5077994;28;20024;-72
2023/07/01 09:20:50;;;;;;;3.97;3.03;;;;;;;-143.48;100.00;118439.88;5096024;28;20016;-72
2023/07/01 09:23:33;;;;;;;4.03;2.90;;;;;;;-143.48;100.00;118439.88;5096294;28;20028;-70
2023/07/01 09:26:11;;;;;;;4.18;2.95;;;;;;;-143.48;100.00;118439.88;5077843;28;20544;-72
2023/07/01 09:28:41;;;;;;;4.72;2.97;;;;;;;-143.48;100.00;118439.88;5096123;28;20024;-73
2023/07/01 09:31:09;;;;;;;3.95;3.05;;;;;;;-143.48;100.00;118439.88;5096126;28;20047;-71
2023/07/01 09:33:35;;;;;;;3.60;3.03;;;;;;;-143.48;100.00;118439.88;5095951;28;20487;-73
2023/07/01 09:36:02;;;;;;;4.25;2.78;;;;;;;-143.48;100.00;118439.88;5096150;28;20031;-72
2023/07/01 09:38:31;;;;;;;3.45;2.80;;;;;;;-143.48;100.00;118439.88;5095068;28;20471;-72
2023/07/01 09:41:13;;;;;;;4.45;2.80;;;;;;;-143.48;100.00;118439.88;5095613;28;20104;-72
2023/07/01 09:43:40;;;;;;;2.30;2.10;;;;;;;-143.48;100.00;118439.88;5095820;28;20024;-71
2023/07/01 09:46:06;;;;;;;2.90;2.30;;;;;;;-143.48;100.00;118439.88;5077585;28;20459;-71
2023/07/01 09:48:33;;;;;;;2.85;2.05;;;;;;;-143.48;100.00;118439.88;5095659;28;20097;-72
2023/07/01 09:51:02;;;;;;;3.13;1.90;;;;;;;-143.48;100.00;118439.88;5077512;28;20129;-71
2023/07/01 09:53:31;;;;;;;3.17;2.30;;;;;;;-143.48;100.00;118439.88;5077843;28;20146;-70
2023/07/01 09:55:57;;;;;;;5.50;2.60;;;;;;;-143.48;100.00;118439.88;5095308;28;20050;-73
2023/07/01 09:58:23;;;;;;;4.32;2.80;;;;;;;-143.48;100.00;118439.88;5095595;28;20019;-72
2023/07/01 10:00:49;;;;;;;3.38;2.70;;;;;;;-143.48;100.00;118439.88;5095335;28;20022;-71
2023/07/01 10:03:15;;;;;;;5.57;2.90;;;;;;;-143.48;100.00;118439.88;5095732;28;20036;-72
2023/07/01 10:05:44;;;;;;;6.13;2.78;;;;;;;-143.48;100.00;118439.88;5095353;28;20039;-72
2023/07/01 10:08:09;;;;;;;3.85;2.78;;;;;;;-143.48;100.00;118439.88;5095064;28;20093;-72
2023/07/01 10:10:34;;;;;;;3.85;2.80;;;;;;;-143.48;100.00;118439.88;5095174;28;20020;-71
2023/07/01 10:13:03;;;;;;;3.70;2.80;;;;;;;-143.48;100.00;118439.88;5095117;28;20080;-72
2023/07/01 10:15:33;;;;;;;7.82;3.40;;;;;;;-143.48;100.00;118439.88;5095074;28;20099;-72
2023/07/01 10:17:59;;;;;;;9.05;3.60;;;;;;;-143.48;100.00;118439.88;5095040;28;20020;-74
2023/07/01 10:20:33;;;;;;;5.85;3.58;;;;;;;-143.48;100.00;118439.88;5093136;28;20039;-73
2023/07/01 10:23:03;;;;;;;8.55;3.72;;;;;;;-143.48;100.00;118439.88;5095302;28;20161;-72
2023/07/01 10:25:36;;;;;;;7.05;3.50;;;;;;;-143.48;100.00;118439.88;5093533;28;20020;-71
2023/07/01 10:28:11;;;;;;;8.48;4.00;;;;;;;-143.48;100.00;118439.88;5094937;28;20435;-71
2023/07/01 10:30:46;;;;;;;6.25;3.83;;;;;;;-143.48;100.00;118439.88;5095132;28;20050;-70
2023/07/01 10:33:30;;;;;;;6.25;4.07;;;;;;;-143.48;100.00;118439.88;5093816;28;20077;-70
2023/07/01 10:36:01;;;;;;;5.35;3.83;;;;;;;-143.48;100.00;118439.88;5075379;28;20363;-71
2023/07/01 10:38:26;;;;;;;7.82;4.20;;;;;;;-143.48;100.00;118439.88;5094635;28;20479;-73
2023/07/01 10:40:51;;;;;;;8.18;4.85;;;;;;;-143.48;100.00;118439.88;5076779;28;20115;-73
2023/07/01 10:43:35;;;;;;;9.13;5.07;;;;;;;-143.48;100.00;118439.88;5093040;28;20016;-72
2023/07/01 10:46:19;;;;;;;11.25;4.97;;;;;;;-143.48;100.00;118439.88;5093807;28;20016;-72
2023/07/01 10:49:02;;;;;;;11.75;5.10;;;;;;;-143.48;100.00;118439.88;5092879;28;20028;-72
2023/07/01 10:51:51;;;;;;;9.43;5.30;;;;;;;-143.48;100.00;118439.88;5092163;28;20118;-71
2023/07/01 10:54:35;;;;;;;8.27;5.15;;;;;;;-143.48;100.00;118439.88;5073775;28;20024;-72
2023/07/01 10:57:12;;;;;;;11.95;5.45;;;;;;;-143.48;100.00;118439.88;5074534;28;20024;-72
2023/07/01 10:59:38;;;;;;;8.85;5.22;;;;;;;-143.48;100.00;118439.88;5076078;28;20020;-73